Terminal Aerodrome Forecast
Issued by NWS

Home | Current Version | Previous Version | Text Only | Print | Product List | Glossary On
Versions: 1 2 3 4 5 6 7 8 9 10 11 12 13 14 15
000
FTUS43 KOAX 312332
TAFSNY
TAF
KSNY 312332Z 0100/0124 14007KT P6SM SCT090
     FM010300 20009KT P6SM SCT250
     FM011800 19014G24KT P6SM SCT100=

USA.gov is the U.S. government's official web portal to all federal, state and local government web resources and services.